sensor_id;sensor_type;location;lat;lon;timestamp;P1;durP1;ratioP1;P2;durP2;ratioP2
20063;SDS011;10192;60.372;24.402;2022-12-31T05:08:49;2.70;;;1.67;;
20063;SDS011;10192;60.372;24.402;2022-12-31T05:18:49;3.10;;;1.67;;
20063;SDS011;10192;60.372;24.402;2022-12-31T05:28:48;5.17;;;1.80;;
20063;SDS011;10192;60.372;24.402;2022-12-31T05:38:46;0.50;;;0.47;;
20063;SDS011;10192;60.372;24.402;2022-12-31T05:48:45;3.03;;;0.80;;
20063;SDS011;10192;60.372;24.402;2022-12-31T05:58:43;0.87;;;0.50;;
20063;SDS011;10192;60.372;24.402;2022-12-31T06:08:43;0.63;;;0.50;;
20063;SDS011;10192;60.372;24.402;2022-12-31T06:18:41;0.87;;;0.60;;
20063;SDS011;10192;60.372;24.402;2022-12-31T06:28:40;0.60;;;0.60;;
20063;SDS011;10192;60.372;24.402;2022-12-31T06:38:38;0.70;;;0.70;;
20063;SDS011;10192;60.372;24.402;2022-12-31T06:48:39;1.40;;;0.70;;
20063;SDS011;10192;60.372;24.402;2022-12-31T06:58:40;0.83;;;0.60;;
20063;SDS011;10192;60.372;24.402;2022-12-31T07:08:42;0.60;;;0.60;;
20063;SDS011;10192;60.372;24.402;2022-12-31T07:18:46;1.57;;;0.77;;
20063;SDS011;10192;60.372;24.402;2022-12-31T07:28:56;2.30;;;0.60;;
20063;SDS011;10192;60.372;24.402;2022-12-31T07:39:07;1.20;;;1.00;;
20063;SDS011;10192;60.372;24.402;2022-12-31T07:49:11;1.33;;;0.70;;
20063;SDS011;10192;60.372;24.402;2022-12-31T08:09:45;1.57;;;0.70;;
20063;SDS011;10192;60.372;24.402;2022-12-31T08:19:46;3.37;;;1.00;;
20063;SDS011;10192;60.372;24.402;2022-12-31T08:29:47;1.63;;;0.67;;
20063;SDS011;10192;60.372;24.402;2022-12-31T08:40:01;1.10;;;0.70;;
20063;SDS011;10192;60.372;24.402;2022-12-31T08:50:13;2.67;;;0.70;;
20063;SDS011;10192;60.372;24.402;2022-12-31T09:00:13;0.80;;;0.60;;
20063;SDS011;10192;60.372;24.402;2022-12-31T09:10:17;3.70;;;1.23;;
20063;SDS011;10192;60.372;24.402;2022-12-31T09:20:21;0.80;;;0.70;;
20063;SDS011;10192;60.372;24.402;2022-12-31T09:30:40;2.20;;;0.67;;
20063;SDS011;10192;60.372;24.402;2022-12-31T09:40:53;1.90;;;0.70;;
20063;SDS011;10192;60.372;24.402;2022-12-31T09:51:10;1.63;;;0.90;;
20063;SDS011;10192;60.372;24.402;2022-12-31T10:01:24;5.03;;;0.90;;
20063;SDS011;10192;60.372;24.402;2022-12-31T10:11:41;3.27;;;0.90;;
20063;SDS011;10192;60.372;24.402;2022-12-31T10:21:53;3.40;;;0.80;;
20063;SDS011;10192;60.372;24.402;2022-12-31T10:32:10;0.90;;;0.70;;
20063;SDS011;10192;60.372;24.402;2022-12-31T10:42:19;1.23;;;0.60;;
20063;SDS011;10192;60.372;24.402;2022-12-31T11:14:08;1.90;;;0.70;;
20063;SDS011;10192;60.372;24.402;2022-12-31T11:24:27;4.50;;;1.30;;
20063;SDS011;10192;60.372;24.402;2022-12-31T11:34:58;4.37;;;1.03;;
20063;SDS011;10192;60.372;24.402;2022-12-31T11:45:12;2.00;;;1.00;;
20063;SDS011;10192;60.372;24.402;2022-12-31T11:55:26;1.73;;;0.93;;
20063;SDS011;10192;60.372;24.402;2022-12-31T12:05:31;89.37;;;30.87;;
20063;SDS011;10192;60.372;24.402;2022-12-31T12:15:35;172.60;;;47.23;;
20063;SDS011;10192;60.372;24.402;2022-12-31T12:25:37;118.20;;;36.63;;
20063;SDS011;10192;60.372;24.402;2022-12-31T12:35:37;131.63;;;35.83;;
20063;SDS011;10192;60.372;24.402;2022-12-31T12:45:41;106.37;;;30.87;;
20063;SDS011;10192;60.372;24.402;2022-12-31T12:55:50;68.00;;;22.17;;
20063;SDS011;10192;60.372;24.402;2022-12-31T13:06:03;57.87;;;18.57;;
20063;SDS011;10192;60.372;24.402;2022-12-31T13:16:17;63.13;;;19.77;;
20063;SDS011;10192;60.372;24.402;2022-12-31T13:26:22;56.23;;;18.63;;
20063;SDS011;10192;60.372;24.402;2022-12-31T13:36:26;60.37;;;18.33;;
20063;SDS011;10192;60.372;24.402;2022-12-31T13:46:31;59.63;;;17.53;;
20063;SDS011;10192;60.372;24.402;2022-12-31T13:56:39;48.20;;;14.10;;
20063;SDS011;10192;60.372;24.402;2022-12-31T14:06:42;38.50;;;12.40;;
20063;SDS011;10192;60.372;24.402;2022-12-31T14:16:46;33.90;;;11.93;;
20063;SDS011;10192;60.372;24.402;2022-12-31T14:26:49;36.07;;;12.63;;
20063;SDS011;10192;60.372;24.402;2022-12-31T14:36:55;37.90;;;12.87;;
20063;SDS011;10192;60.372;24.402;2022-12-31T14:47:03;35.23;;;11.87;;
20063;SDS011;10192;60.372;24.402;2022-12-31T14:57:20;29.57;;;10.80;;
20063;SDS011;10192;60.372;24.402;2022-12-31T15:07:22;35.67;;;11.97;;
20063;SDS011;10192;60.372;24.402;2022-12-31T15:17:31;4.97;;;1.57;;
20063;SDS011;10192;60.372;24.402;2022-12-31T15:27:39;3.17;;;1.00;;
20063;SDS011;10192;60.372;24.402;2022-12-31T15:37:40;1.30;;;1.20;;
20063;SDS011;10192;60.372;24.402;2022-12-31T15:47:39;1.97;;;1.20;;
20063;SDS011;10192;60.372;24.402;2022-12-31T15:57:40;2.63;;;0.80;;
20063;SDS011;10192;60.372;24.402;2022-12-31T16:07:39;4.17;;;1.20;;
20063;SDS011;10192;60.372;24.402;2022-12-31T16:17:41;2.93;;;1.10;;
20063;SDS011;10192;60.372;24.402;2022-12-31T16:27:40;4.37;;;1.20;;
20063;SDS011;10192;60.372;24.402;2022-12-31T16:37:39;2.03;;;1.10;;
20063;SDS011;10192;60.372;24.402;2022-12-31T16:47:39;1.70;;;1.07;;
20063;SDS011;10192;60.372;24.402;2022-12-31T16:57:40;2.17;;;1.17;;
20063;SDS011;10192;60.372;24.402;2022-12-31T17:07:40;1.60;;;1.00;;
20063;SDS011;10192;60.372;24.402;2022-12-31T17:17:40;1.20;;;0.90;;
20063;SDS011;10192;60.372;24.402;2022-12-31T17:27:38;1.90;;;1.00;;
20063;SDS011;10192;60.372;24.402;2022-12-31T17:37:38;2.70;;;1.13;;
20063;SDS011;10192;60.372;24.402;2022-12-31T17:47:36;4.23;;;1.53;;
20063;SDS011;10192;60.372;24.402;2022-12-31T17:57:42;2.63;;;0.90;;
20063;SDS011;10192;60.372;24.402;2022-12-31T18:07:44;4.80;;;1.33;;
20063;SDS011;10192;60.372;24.402;2022-12-31T18:17:44;2.23;;;0.87;;
20063;SDS011;10192;60.372;24.402;2022-12-31T18:27:45;2.13;;;0.90;;
20063;SDS011;10192;60.372;24.402;2022-12-31T18:37:45;2.87;;;0.93;;
20063;SDS011;10192;60.372;24.402;2022-12-31T18:47:43;1.03;;;0.93;;
20063;SDS011;10192;60.372;24.402;2022-12-31T18:57:42;2.13;;;0.93;;
20063;SDS011;10192;60.372;24.402;2022-12-31T19:07:40;1.40;;;0.90;;
20063;SDS011;10192;60.372;24.402;2022-12-31T19:17:39;1.87;;;1.20;;
20063;SDS011;10192;60.372;24.402;2022-12-31T19:27:37;4.63;;;1.20;;
20063;SDS011;10192;60.372;24.402;2022-12-31T19:37:36;1.57;;;1.10;;
20063;SDS011;10192;60.372;24.402;2022-12-31T19:47:34;1.33;;;0.93;;
20063;SDS011;10192;60.372;24.402;2022-12-31T19:57:37;1.47;;;0.90;;
20063;SDS011;10192;60.372;24.402;2022-12-31T20:07:36;2.67;;;1.03;;
20063;SDS011;10192;60.372;24.402;2022-12-31T20:17:38;2.03;;;0.77;;
20063;SDS011;10192;60.372;24.402;2022-12-31T20:27:36;2.40;;;0.90;;
20063;SDS011;10192;60.372;24.402;2022-12-31T20:37:36;2.77;;;1.00;;
20063;SDS011;10192;60.372;24.402;2022-12-31T20:47:34;1.43;;;1.13;;
20063;SDS011;10192;60.372;24.402;2022-12-31T20:57:34;2.43;;;1.00;;
20063;SDS011;10192;60.372;24.402;2022-12-31T21:07:32;1.40;;;1.30;;
20063;SDS011;10192;60.372;24.402;2022-12-31T21:17:31;1.63;;;1.17;;
20063;SDS011;10192;60.372;24.402;2022-12-31T21:27:31;2.37;;;0.97;;
20063;SDS011;10192;60.372;24.402;2022-12-31T21:37:33;1.77;;;1.20;;
20063;SDS011;10192;60.372;24.402;2022-12-31T21:47:51;2.10;;;1.00;;
20063;SDS011;10192;60.372;24.402;2022-12-31T21:58:11;1.63;;;0.90;;
